createdAt,value
2023-03-08T00:00:28.477Z,99113.47
2023-03-08T00:02:58.494Z,99108.78
2023-03-08T00:05:26.800Z,99103.75
2023-03-08T00:07:55.804Z,99106.56
2023-03-08T00:10:23.996Z,99097.69
2023-03-08T00:12:51.843Z,99098.91
2023-03-08T00:15:20.833Z,99086.56
2023-03-08T00:17:48.956Z,99083.94
2023-03-08T00:20:20.395Z,99088.41
2023-03-08T00:22:48.293Z,99075.50
2023-03-08T00:25:17.019Z,99074.69
2023-03-08T00:27:45.877Z,99077.50
2023-03-08T00:30:15.273Z,99076.91
2023-03-08T00:32:43.459Z,99081.16
2023-03-08T00:35:12.149Z,99085.59
2023-03-08T00:37:41.331Z,99075.91
2023-03-08T00:40:11.300Z,99075.09
2023-03-08T00:42:40.569Z,99073.50
2023-03-08T00:45:10.239Z,99061.38
2023-03-08T00:47:38.521Z,99060.53
2023-03-08T00:50:08.532Z,99062.56
2023-03-08T00:52:36.612Z,99059.34
2023-03-08T00:55:07.272Z,99062.97
2023-03-08T00:57:35.923Z,99046.81
2023-03-08T01:00:05.966Z,99040.78
2023-03-08T01:02:34.062Z,99028.66
2023-03-08T01:05:02.748Z,99039.16
2023-03-08T01:07:31.656Z,99028.66
2023-03-08T01:09:59.686Z,99023.41
2023-03-08T01:12:32.380Z,99014.50
2023-03-08T01:15:01.000Z,99015.53
2023-03-08T01:17:28.868Z,99013.91
2023-03-08T01:19:57.868Z,99000.78
2023-03-08T01:22:25.749Z,98999.19
2023-03-08T01:24:53.935Z,99005.44
2023-03-08T01:27:22.530Z,99004.44
2023-03-08T01:29:51.994Z,98994.91
2023-03-08T01:32:20.138Z,98988.06
2023-03-08T01:34:48.963Z,98988.28
2023-03-08T01:37:17.145Z,98983.84
2023-03-08T01:39:45.254Z,98980.41
2023-03-08T01:42:13.902Z,98971.72
2023-03-08T01:44:54.923Z,98962.81
2023-03-08T01:47:25.540Z,98952.31
2023-03-08T01:49:55.645Z,98962.00
2023-03-08T01:52:27.739Z,98951.72
2023-03-08T01:54:58.404Z,98951.34
2023-03-08T01:57:31.627Z,98941.41
2023-03-08T02:00:06.575Z,98924.84
2023-03-08T02:02:42.796Z,98919.81
2023-03-08T02:05:12.564Z,98913.97
2023-03-08T02:07:40.650Z,98907.09
2023-03-08T02:10:10.754Z,98901.84
2023-03-08T02:12:40.037Z,98901.28
2023-03-08T02:15:14.221Z,98901.06
2023-03-08T02:17:43.789Z,98895.22
2023-03-08T02:20:16.697Z,98892.94
2023-03-08T02:22:47.163Z,98893.78
2023-03-08T02:25:17.060Z,98878.66
2023-03-08T02:27:45.716Z,98876.22
2023-03-08T02:30:16.275Z,98865.16
2023-03-08T02:32:45.192Z,98855.06
2023-03-08T02:35:13.833Z,98853.47
2023-03-08T02:37:41.737Z,98854.47
2023-03-08T02:40:13.316Z,98850.84
2023-03-08T02:42:41.652Z,98848.63
2023-03-08T02:45:11.077Z,98836.53
2023-03-08T02:47:40.196Z,98834.91
2023-03-08T02:50:09.319Z,98828.88
2023-03-08T02:52:37.629Z,98826.47
2023-03-08T02:55:07.126Z,98824.03
2023-03-08T02:57:36.719Z,98820.59
2023-03-08T03:00:05.318Z,98812.16
2023-03-08T03:02:34.760Z,98811.53
2023-03-08T03:05:05.300Z,98803.09
2023-03-08T03:07:37.974Z,98797.28
2023-03-08T03:10:07.495Z,98794.47
2023-03-08T03:12:37.212Z,98773.34
2023-03-08T03:15:06.387Z,98780.19
2023-03-08T03:17:34.905Z,98779.00
2023-03-08T03:20:03.723Z,98786.72
2023-03-08T03:22:32.317Z,98775.81
2023-03-08T03:25:00.564Z,98778.09
2023-03-08T03:27:29.623Z,98780.09
2023-03-08T03:30:00.442Z,98769.03
2023-03-08T03:32:28.848Z,98765.00
2023-03-08T03:34:57.141Z,98757.78
2023-03-08T03:37:25.986Z,98749.31
2023-03-08T03:39:54.246Z,98734.00
2023-03-08T03:42:22.415Z,98724.53
2023-03-08T03:44:51.291Z,98723.94
2023-03-08T03:47:20.953Z,98719.50
2023-03-08T03:49:48.826Z,98709.81
2023-03-08T03:52:17.857Z,98704.19
2023-03-08T03:54:46.431Z,98702.19
2023-03-08T03:57:14.406Z,98697.41
2023-03-08T03:59:43.142Z,98691.78
2023-03-08T04:02:11.456Z,98688.34
2023-03-08T04:04:41.136Z,98680.47
2023-03-08T04:07:09.644Z,98669.19
2023-03-08T04:09:37.830Z,98665.97
2023-03-08T04:12:06.821Z,98654.09
2023-03-08T04:14:35.321Z,98644.03
2023-03-08T04:17:03.702Z,98641.84
2023-03-08T04:19:32.203Z,98637.59
2023-03-08T04:22:02.981Z,98640.22
2023-03-08T04:24:31.477Z,98636.63
2023-03-08T04:26:59.300Z,98643.69
2023-03-08T04:29:28.065Z,98644.72
2023-03-08T04:32:00.348Z,98635.03
2023-03-08T04:34:29.517Z,98640.13
2023-03-08T04:36:57.487Z,98639.31
2023-03-08T04:39:27.072Z,98631.22
2023-03-08T04:41:54.936Z,98622.72
2023-03-08T04:44:22.813Z,98615.88
2023-03-08T04:46:50.871Z,98608.44
2023-03-08T04:49:19.759Z,98601.59
2023-03-08T04:51:47.995Z,98608.88
2023-03-08T04:54:16.135Z,98601.03
2023-03-08T04:56:46.456Z,98594.75
2023-03-08T04:59:14.645Z,98583.47
2023-03-08T05:01:43.899Z,98576.41
2023-03-08T05:04:13.638Z,98570.94
2023-03-08T05:06:41.813Z,98573.56
2023-03-08T05:09:09.795Z,98554.41
2023-03-08T05:11:38.756Z,98550.75
2023-03-08T05:14:08.766Z,98548.75
2023-03-08T05:16:37.234Z,98538.69
2023-03-08T05:19:05.864Z,98515.88
2023-03-08T05:21:34.042Z,98504.03
2023-03-08T05:24:02.170Z,98497.97
2023-03-08T05:26:30.394Z,98497.75
2023-03-08T05:28:58.598Z,98493.53
2023-03-08T05:31:28.611Z,98501.97
2023-03-08T05:33:57.431Z,98494.09
2023-03-08T05:36:25.290Z,98470.97
2023-03-08T05:38:54.926Z,98453.19
2023-03-08T05:41:23.559Z,98447.56
2023-03-08T05:43:51.536Z,98456.22
2023-03-08T05:46:20.854Z,98443.13
2023-03-08T05:48:50.636Z,98432.06
2023-03-08T05:51:19.080Z,98425.94
2023-03-08T05:53:47.684Z,98417.72
2023-03-08T05:56:17.664Z,98419.75
2023-03-08T05:58:48.026Z,98412.56
2023-03-08T06:01:19.458Z,98413.56
2023-03-08T06:03:50.606Z,98411.19
2023-03-08T06:06:19.716Z,98420.88
2023-03-08T06:08:48.712Z,98421.88
2023-03-08T06:11:17.220Z,98420.28
2023-03-08T06:13:46.031Z,98426.31
2023-03-08T06:16:14.426Z,98423.13
2023-03-08T06:18:43.545Z,98421.28
2023-03-08T06:21:16.227Z,98424.50
2023-03-08T06:23:45.652Z,98419.47
2023-03-08T06:26:14.843Z,98419.69
2023-03-08T06:28:43.832Z,98417.28
2023-03-08T06:31:14.265Z,98415.47
2023-03-08T06:33:43.446Z,98406.00
2023-03-08T06:36:16.740Z,98407.41
2023-03-08T06:38:45.814Z,98398.94
2023-03-08T06:41:15.506Z,98388.69
2023-03-08T06:43:43.399Z,98383.56
2023-03-08T06:46:14.565Z,98371.50
2023-03-08T06:48:42.680Z,98365.09
2023-03-08T06:51:10.795Z,98367.72
2023-03-08T06:53:41.481Z,98358.25
2023-03-08T06:56:12.750Z,98347.78
2023-03-08T06:58:41.474Z,98344.13
2023-03-08T07:01:10.274Z,98341.50
2023-03-08T07:03:38.851Z,98331.63
2023-03-08T07:06:09.767Z,98335.84
2023-03-08T07:08:40.658Z,98334.00
2023-03-08T07:11:10.265Z,98327.75
2023-03-08T07:13:38.690Z,98325.03
2023-03-08T07:16:08.566Z,98322.88
2023-03-08T07:18:37.820Z,98320.25
2023-03-08T07:21:07.176Z,98311.22
2023-03-08T07:23:35.265Z,98309.41
2023-03-08T07:26:07.904Z,98306.53
2023-03-08T07:28:36.332Z,98300.75
2023-03-08T07:31:04.426Z,98300.16
2023-03-08T07:33:32.813Z,98296.53
2023-03-08T07:36:02.693Z,98281.81
2023-03-08T07:38:31.123Z,98282.41
2023-03-08T07:40:59.388Z,98281.38
2023-03-08T07:43:28.636Z,98277.72
2023-03-08T07:45:56.841Z,98281.97
2023-03-08T07:48:25.467Z,98282.75
2023-03-08T07:50:53.523Z,98279.34
2023-03-08T07:53:21.553Z,98274.09
2023-03-08T07:55:50.233Z,98278.31
2023-03-08T07:58:18.296Z,98287.78
2023-03-08T08:00:48.241Z,98282.28
2023-03-08T08:03:16.925Z,98282.53
2023-03-08T08:05:45.358Z,98283.09
2023-03-08T08:08:14.191Z,98284.13
2023-03-08T08:10:43.101Z,98290.75
2023-03-08T08:13:11.400Z,98291.31
2023-03-08T08:15:39.701Z,98279.25
2023-03-08T08:18:09.511Z,98273.53
2023-03-08T08:20:38.091Z,98257.59
2023-03-08T08:23:06.797Z,98258.41
2023-03-08T08:25:35.710Z,98266.03
2023-03-08T08:28:03.819Z,98256.94
2023-03-08T08:30:32.065Z,98266.16
2023-03-08T08:33:02.239Z,98263.31
2023-03-08T08:35:42.780Z,98267.31
2023-03-08T08:38:12.618Z,98278.03
2023-03-08T08:40:40.706Z,98273.38
2023-03-08T08:43:09.308Z,98262.88
2023-03-08T08:45:38.167Z,98255.81
2023-03-08T08:48:06.737Z,98250.13
2023-03-08T08:50:36.702Z,98248.88
2023-03-08T08:53:05.812Z,98241.78
2023-03-08T08:55:34.220Z,98235.09
2023-03-08T08:58:03.092Z,98236.69
2023-03-08T09:00:32.160Z,98239.91
2023-03-08T09:03:00.503Z,98243.06
2023-03-08T09:05:29.195Z,98232.59
2023-03-08T09:08:00.382Z,98224.03
2023-03-08T09:10:29.801Z,98221.19
2023-03-08T09:12:59.198Z,98216.78
2023-03-08T09:15:28.614Z,98214.72
2023-03-08T09:17:56.870Z,98205.25
2023-03-08T09:20:25.118Z,98206.16
2023-03-08T09:22:53.453Z,98205.81
2023-03-08T09:25:24.304Z,98219.84
2023-03-08T09:27:53.095Z,98219.84
2023-03-08T09:30:21.384Z,98225.56
2023-03-08T09:32:49.502Z,98227.50
2023-03-08T09:35:18.060Z,98229.31
2023-03-08T09:37:46.033Z,98235.56
2023-03-08T09:40:21.536Z,98237.03
2023-03-08T09:42:51.211Z,98236.03
2023-03-08T09:45:25.920Z,98228.28
2023-03-08T09:48:05.140Z,98218.25
2023-03-08T09:50:39.289Z,98219.84
2023-03-08T09:53:17.745Z,98225.69
2023-03-08T09:55:49.900Z,98212.56
2023-03-08T09:58:33.077Z,98208.66
2023-03-08T10:01:08.342Z,98209.47
2023-03-08T10:04:14.424Z,98208.00
2023-03-08T10:06:49.707Z,98202.75
2023-03-08T10:09:29.668Z,98199.69
2023-03-08T10:12:06.863Z,98203.44
2023-03-08T10:14:47.096Z,98192.47
2023-03-08T10:17:18.983Z,98195.69
2023-03-08T10:19:54.034Z,98197.84
2023-03-08T10:22:28.849Z,98187.09
2023-03-08T10:25:01.379Z,98190.88
2023-03-08T10:27:33.870Z,98189.03
2023-03-08T10:30:13.517Z,98184.59
2023-03-08T10:32:44.051Z,98177.66
2023-03-08T10:35:12.510Z,98180.03
2023-03-08T10:37:40.724Z,98168.38
2023-03-08T10:40:11.399Z,98168.38
2023-03-08T10:42:39.526Z,98174.44
2023-03-08T10:45:16.504Z,98171.81
2023-03-08T10:47:55.847Z,98173.19
2023-03-08T10:50:26.281Z,98168.50
2023-03-08T10:52:54.554Z,98180.38
2023-03-08T10:55:24.874Z,98185.94
2023-03-08T10:57:56.330Z,98181.03
2023-03-08T11:00:34.740Z,98185.50
2023-03-08T11:03:22.248Z,98182.19
2023-03-08T11:05:55.167Z,98170.31
2023-03-08T11:08:27.334Z,98177.72
2023-03-08T11:11:10.603Z,98171.69
2023-03-08T11:13:42.483Z,98172.13
2023-03-08T11:16:26.281Z,98169.06
2023-03-08T11:19:08.751Z,98179.31
2023-03-08T11:21:48.818Z,98170.41
2023-03-08T11:24:32.169Z,98169.41
2023-03-08T11:27:19.647Z,98158.66
2023-03-08T11:30:01.980Z,98173.94
2023-03-08T11:32:45.233Z,98167.88
2023-03-08T11:35:24.897Z,98175.56
2023-03-08T11:38:01.070Z,98165.84
2023-03-08T11:40:33.445Z,98168.47
2023-03-08T11:43:28.637Z,98169.72
2023-03-08T11:46:03.521Z,98164.47
2023-03-08T11:48:47.513Z,98168.69
2023-03-08T11:51:24.333Z,98166.28
2023-03-08T11:54:03.804Z,98183.88
2023-03-08T11:56:47.690Z,98177.28
2023-03-08T11:59:24.985Z,98183.88
2023-03-08T12:01:57.502Z,98182.84
2023-03-08T12:04:33.295Z,98175.44
2023-03-08T12:07:03.445Z,98164.34
2023-03-08T12:09:37.286Z,98170.19
2023-03-08T12:12:13.158Z,98169.16
2023-03-08T12:14:50.562Z,98172.56
2023-03-08T12:17:22.144Z,98162.31
2023-03-08T12:19:52.264Z,98167.09
2023-03-08T12:22:31.520Z,98167.88
2023-03-08T12:25:08.262Z,98152.13
2023-03-08T12:27:44.410Z,98154.31
2023-03-08T12:30:25.018Z,98154.84
2023-03-08T12:32:56.407Z,98163.78
2023-03-08T12:35:33.900Z,98153.84
2023-03-08T12:38:04.809Z,98147.56
2023-03-08T12:40:39.854Z,98140.25
2023-03-08T12:43:11.913Z,98145.03
2023-03-08T12:45:40.719Z,98142.66
2023-03-08T12:48:21.506Z,98150.63
2023-03-08T12:51:00.721Z,98142.75
2023-03-08T12:53:35.923Z,98144.88
2023-03-08T12:56:08.087Z,98149.09
2023-03-08T12:58:39.627Z,98147.28
2023-03-08T13:01:23.835Z,98154.34
2023-03-08T13:03:52.088Z,98147.75
2023-03-08T13:07:05.233Z,98148.34
2023-03-08T13:09:37.999Z,98157.28
2023-03-08T13:12:21.779Z,98149.28
2023-03-08T13:15:03.434Z,98144.59
2023-03-08T13:17:36.462Z,98135.94
2023-03-08T13:20:14.105Z,98129.09
2023-03-08T13:22:54.898Z,98127.50
2023-03-08T13:25:42.072Z,98139.59
2023-03-08T13:28:11.832Z,98135.84
2023-03-08T13:30:47.703Z,98144.84
2023-03-08T13:33:19.043Z,98140.63
2023-03-08T13:35:57.369Z,98146.22
2023-03-08T13:38:30.679Z,98147.03
2023-03-08T13:41:00.682Z,98143.34
2023-03-08T13:43:29.621Z,98148.41
2023-03-08T13:46:00.955Z,98158.66
2023-03-08T13:48:31.944Z,98157.63
2023-03-08T13:51:00.529Z,98147.13
2023-03-08T13:53:32.904Z,98157.16
2023-03-08T13:56:04.136Z,98150.63
2023-03-08T13:58:34.894Z,98150.88
2023-03-08T14:01:05.437Z,98152.72
2023-03-08T14:03:33.900Z,98147.38
2023-03-08T14:06:02.219Z,98150.88
2023-03-08T14:08:31.357Z,98141.72
2023-03-08T14:11:02.451Z,98142.41
2023-03-08T14:13:33.226Z,98150.88
2023-03-08T14:16:04.157Z,98143.56
2023-03-08T14:18:35.664Z,98153.84
2023-03-08T14:21:07.424Z,98150.41
2023-03-08T14:23:41.185Z,98150.41
2023-03-08T14:26:25.542Z,98160.09
2023-03-08T14:29:12.108Z,98152.03
2023-03-08T14:31:40.934Z,98159.09
2023-03-08T14:34:20.480Z,98150.28
2023-03-08T14:36:56.036Z,98161.47
2023-03-08T14:39:27.807Z,98165.69
2023-03-08T14:41:56.640Z,98152.72
2023-03-08T14:44:27.771Z,98166.16
2023-03-08T14:46:59.354Z,98174.16
2023-03-08T14:49:29.103Z,98177.59
2023-03-08T14:51:57.218Z,98183.38
2023-03-08T14:54:33.730Z,98182.59
2023-03-08T14:57:14.126Z,98188.97
2023-03-08T14:59:42.513Z,98162.53
2023-03-08T15:02:13.323Z,98165.09
2023-03-08T15:04:42.096Z,98160.66
2023-03-08T15:07:19.146Z,98159.41
2023-03-08T15:09:50.503Z,98148.78
2023-03-08T15:12:18.248Z,98153.56
2023-03-08T15:14:46.003Z,98156.97
2023-03-08T15:17:14.216Z,98142.03
2023-03-08T15:19:41.854Z,98131.50
2023-03-08T15:22:13.780Z,98130.72
2023-03-08T15:24:42.163Z,98132.34
2023-03-08T15:27:15.591Z,98137.09
2023-03-08T15:29:43.866Z,98132.34
2023-03-08T15:32:11.727Z,98125.25
2023-03-08T15:34:40.775Z,98123.41
2023-03-08T15:37:15.202Z,98123.97
2023-03-08T15:39:42.848Z,98102.41
2023-03-08T15:42:12.398Z,98129.63
2023-03-08T15:44:40.967Z,98101.28
2023-03-08T15:47:10.677Z,98121.25
2023-03-08T15:49:38.161Z,98163.31
2023-03-08T15:52:08.615Z,98133.41
2023-03-08T15:54:36.461Z,98126.31
2023-03-08T15:57:04.251Z,98139.91
2023-03-08T15:59:36.739Z,98138.31
2023-03-08T16:02:04.670Z,98144.03
2023-03-08T16:04:32.447Z,98139.00
2023-03-08T16:07:00.506Z,98130.91
2023-03-08T16:09:28.188Z,98125.41
2023-03-08T16:11:55.838Z,98121.75
2023-03-08T16:14:24.492Z,98127.59
2023-03-08T16:16:53.534Z,98118.44
2023-03-08T16:19:21.268Z,98132.94
2023-03-08T16:21:51.152Z,98130.06
2023-03-08T16:24:18.848Z,98136.47
2023-03-08T16:26:46.498Z,98132.00
2023-03-08T16:29:14.863Z,98126.25
2023-03-08T16:31:42.665Z,98115.75
2023-03-08T16:34:12.681Z,98109.25
2023-03-08T16:36:40.845Z,98115.91
2023-03-08T16:39:08.973Z,98088.06
2023-03-08T16:41:36.969Z,98078.00
2023-03-08T16:44:05.463Z,98095.38
2023-03-08T16:46:33.584Z,98120.59
2023-03-08T16:49:01.271Z,98126.91
2023-03-08T16:51:32.090Z,98114.31
2023-03-08T16:53:59.791Z,98119.47
2023-03-08T16:56:29.278Z,98118.78
2023-03-08T16:58:58.897Z,98110.22
2023-03-08T17:01:27.056Z,98095.50
2023-03-08T17:03:56.096Z,98101.09
2023-03-08T17:06:27.671Z,98096.38
2023-03-08T17:08:57.828Z,98104.28
2023-03-08T17:11:28.831Z,98092.50
2023-03-08T17:13:58.847Z,98089.09
2023-03-08T17:16:28.315Z,98092.50
2023-03-08T17:18:56.817Z,98084.38
2023-03-08T17:21:24.535Z,98088.06
2023-03-08T17:23:52.655Z,98084.06
2023-03-08T17:26:24.882Z,98095.47
2023-03-08T17:28:53.903Z,98094.09
2023-03-08T17:31:23.800Z,98083.59
2023-03-08T17:33:52.773Z,98081.75
2023-03-08T17:36:20.796Z,98080.72
2023-03-08T17:38:49.185Z,98075.47
2023-03-08T17:41:18.064Z,98080.72
2023-03-08T17:43:47.089Z,98082.56
2023-03-08T17:46:17.272Z,98084.38
2023-03-08T17:48:45.557Z,98089.63
2023-03-08T17:51:15.323Z,98088.84
2023-03-08T17:53:45.683Z,98080.41
2023-03-08T17:56:15.067Z,98083.25
2023-03-08T17:58:43.057Z,98084.28
2023-03-08T18:01:14.713Z,98084.88
2023-03-08T18:03:42.621Z,98082.47
2023-03-08T18:06:19.226Z,98079.63
2023-03-08T18:08:46.882Z,98078.25
2023-03-08T18:11:14.600Z,98079.28
2023-03-08T18:13:42.836Z,98090.59
2023-03-08T18:16:12.094Z,98079.28
2023-03-08T18:18:39.909Z,98074.50
2023-03-08T18:21:13.788Z,98085.78
2023-03-08T18:23:43.240Z,98084.66
2023-03-08T18:26:11.924Z,98073.69
2023-03-08T18:28:39.797Z,98077.28
2023-03-08T18:31:08.976Z,98090.50
2023-03-08T18:33:38.629Z,98093.13
2023-03-08T18:36:06.289Z,98096.09
2023-03-08T18:38:34.172Z,98098.13
2023-03-08T18:41:11.675Z,98099.97
2023-03-08T18:43:40.840Z,98099.16
2023-03-08T18:46:10.309Z,98085.00
2023-03-08T18:48:40.600Z,98077.38
2023-03-08T18:51:08.377Z,98098.38
2023-03-08T18:53:37.046Z,98093.03
2023-03-08T18:56:05.990Z,98087.88
2023-03-08T18:58:34.025Z,98105.22
2023-03-08T19:01:02.948Z,98101.69
2023-03-08T19:03:31.431Z,98103.13
2023-03-08T19:06:02.863Z,98092.63
2023-03-08T19:08:30.574Z,98086.59
2023-03-08T19:10:58.285Z,98091.03
2023-03-08T19:13:26.056Z,98085.78
2023-03-08T19:15:53.716Z,98074.81
2023-03-08T19:18:23.479Z,98070.13
2023-03-08T19:20:51.239Z,98058.63
2023-03-08T19:23:20.353Z,98061.78
2023-03-08T19:26:02.248Z,98056.53
2023-03-08T19:28:30.178Z,98051.03
2023-03-08T19:30:57.860Z,98038.72
2023-03-08T19:33:30.760Z,98037.13
2023-03-08T19:35:58.874Z,98042.13
2023-03-08T19:38:28.006Z,98036.88
2023-03-08T19:40:55.823Z,98038.72
2023-03-08T19:43:23.483Z,98033.44
2023-03-08T19:45:52.119Z,98027.66
2023-03-08T19:48:19.802Z,98028.19
2023-03-08T19:50:47.808Z,98035.06
2023-03-08T19:53:16.071Z,98034.25
2023-03-08T19:55:51.086Z,98047.16
2023-03-08T19:58:19.537Z,98033.16
2023-03-08T20:00:47.810Z,98039.28
2023-03-08T20:03:17.709Z,98025.91
2023-03-08T20:05:48.398Z,98024.06
2023-03-08T20:08:16.114Z,98030.38
2023-03-08T20:10:43.783Z,98034.59
2023-03-08T20:13:13.605Z,98044.28
2023-03-08T20:15:41.088Z,98036.50
2023-03-08T20:18:09.017Z,98029.66
2023-03-08T20:20:37.198Z,98033.31
2023-03-08T20:23:05.017Z,98044.03
2023-03-08T20:25:34.649Z,98036.16
2023-03-08T20:28:02.600Z,98028.38
2023-03-08T20:30:31.718Z,98033.63
2023-03-08T20:32:59.400Z,98027.03
2023-03-08T20:35:27.426Z,98017.31
2023-03-08T20:37:55.148Z,98021.78
2023-03-08T20:40:22.981Z,98024.66
2023-03-08T20:42:51.407Z,98018.38
2023-03-08T20:45:23.697Z,98012.31
2023-03-08T20:47:55.127Z,97998.94
2023-03-08T20:50:23.113Z,98010.47
2023-03-08T20:52:50.878Z,98000.78
2023-03-08T20:55:19.448Z,98001.56
2023-03-08T20:57:47.110Z,97992.66
2023-03-08T21:00:15.663Z,97990.00
2023-03-08T21:02:43.800Z,97998.94
2023-03-08T21:05:13.085Z,98011.03
2023-03-08T21:07:40.746Z,98002.34
2023-03-08T21:10:09.693Z,98002.09
2023-03-08T21:12:39.042Z,98000.53
2023-03-08T21:15:08.068Z,97987.16
2023-03-08T21:17:40.331Z,97983.50
2023-03-08T21:20:10.773Z,97992.97
2023-03-08T21:22:40.001Z,97978.00
2023-03-08T21:25:08.376Z,97975.38
2023-03-08T21:27:36.912Z,97963.03
2023-03-08T21:30:07.205Z,97962.00
2023-03-08T21:32:35.168Z,97965.66
2023-03-08T21:35:03.131Z,97971.97
2023-03-08T21:37:30.873Z,97973.53
2023-03-08T21:40:00.182Z,97970.13
2023-03-08T21:42:27.863Z,97962.25
2023-03-08T21:44:55.517Z,97962.78
2023-03-08T21:47:23.226Z,97972.50
2023-03-08T21:49:50.890Z,97975.38
2023-03-08T21:52:18.547Z,97981.97
2023-03-08T21:54:46.413Z,97962.00
2023-03-08T21:57:15.416Z,97975.38
2023-03-08T21:59:43.054Z,97961.13
2023-03-08T22:02:12.167Z,97960.88
2023-03-08T22:04:40.393Z,97951.91
2023-03-08T22:07:08.084Z,97954.63
2023-03-08T22:09:35.948Z,97963.28
2023-03-08T22:12:03.877Z,97958.25
2023-03-08T22:14:33.376Z,97964.88
2023-03-08T22:17:01.389Z,97960.09
2023-03-08T22:19:29.020Z,97955.41
2023-03-08T22:21:58.418Z,97949.91
2023-03-08T22:24:27.391Z,97942.03
2023-03-08T22:26:55.143Z,97931.28
2023-03-08T22:29:22.792Z,97940.75
2023-03-08T22:31:52.231Z,97932.88
2023-03-08T22:34:19.975Z,97938.13
2023-03-08T22:36:47.656Z,97951.28
2023-03-08T22:39:15.940Z,97939.16
2023-03-08T22:41:43.598Z,97941.78
2023-03-08T22:44:14.083Z,97944.41
2023-03-08T22:46:42.359Z,97954.84
2023-03-08T22:49:12.444Z,97965.25
2023-03-08T22:51:41.341Z,97968.44
2023-03-08T22:54:10.153Z,97955.63
2023-03-08T22:56:37.821Z,97959.84
2023-03-08T22:59:05.487Z,97976.63
2023-03-08T23:01:34.071Z,97978.28
2023-03-08T23:04:04.100Z,97993.50
2023-03-08T23:06:34.903Z,97991.66
2023-03-08T23:09:06.101Z,97988.44
2023-03-08T23:11:34.675Z,98000.69
2023-03-08T23:14:03.081Z,97984.25
2023-03-08T23:16:31.033Z,97986.53
2023-03-08T23:18:59.439Z,98006.84
2023-03-08T23:21:30.250Z,97994.28
2023-03-08T23:23:59.527Z,97989.91
2023-03-08T23:26:28.623Z,97998.94
2023-03-08T23:28:58.347Z,97988.19
2023-03-08T23:31:27.167Z,97991.44
2023-03-08T23:33:55.658Z,97991.75
2023-03-08T23:36:25.787Z,97992.56
2023-03-08T23:38:54.139Z,97994.16
2023-03-08T23:41:23.189Z,97996.31
2023-03-08T23:43:55.619Z,97987.97
2023-03-08T23:46:23.622Z,97997.91
2023-03-08T23:48:55.756Z,97990.34
2023-03-08T23:51:24.837Z,97989.84
2023-03-08T23:53:54.724Z,98002.97
2023-03-08T23:56:27.882Z,98009.38
2023-03-08T23:58:56.150Z,97989.13
